createdAt,value
2017-12-23T00:00:45.798Z,1031.50
2017-12-23T00:01:45.792Z,1031.45
2017-12-23T00:02:45.787Z,1031.53
2017-12-23T00:03:45.783Z,1031.50
2017-12-23T00:04:45.777Z,1031.53
2017-12-23T00:05:45.783Z,1031.54
2017-12-23T00:06:45.773Z,1031.54
2017-12-23T00:07:45.769Z,1031.46
2017-12-23T00:08:45.762Z,1031.47
2017-12-23T00:09:45.758Z,1031.43
2017-12-23T00:10:45.761Z,1031.40
2017-12-23T00:11:45.747Z,1031.41
2017-12-23T00:12:45.743Z,1031.41
2017-12-23T00:13:45.734Z,1031.46
2017-12-23T00:14:45.729Z,1031.41
2017-12-23T00:15:45.724Z,1031.45
2017-12-23T00:16:45.695Z,1031.39
2017-12-23T00:17:45.691Z,1031.38
2017-12-23T00:18:45.686Z,1031.37
2017-12-23T00:19:45.680Z,1031.32
2017-12-23T00:20:45.677Z,1031.31
2017-12-23T00:21:45.676Z,1031.37
2017-12-23T00:22:45.671Z,1031.34
2017-12-23T00:23:45.666Z,1031.38
2017-12-23T00:24:45.665Z,1031.36
2017-12-23T00:25:45.659Z,1031.35
2017-12-23T00:26:45.653Z,1031.37
2017-12-23T00:27:45.649Z,1031.38
2017-12-23T00:28:45.644Z,1031.41
2017-12-23T00:29:45.636Z,1031.39
2017-12-23T00:30:45.632Z,1031.37
2017-12-23T00:31:45.625Z,1031.39
2017-12-23T00:32:45.623Z,1031.45
2017-12-23T00:33:45.628Z,1031.40
2017-12-23T00:34:45.617Z,1031.42
2017-12-23T00:35:45.611Z,1031.36
2017-12-23T00:36:45.607Z,1031.42
2017-12-23T00:37:45.600Z,1031.35
2017-12-23T00:38:45.597Z,1031.33
2017-12-23T00:39:45.592Z,1031.32
2017-12-23T00:40:45.588Z,1031.39
2017-12-23T00:41:45.584Z,1031.33
2017-12-23T00:42:45.578Z,1031.35
2017-12-23T00:43:45.572Z,1031.31
2017-12-23T00:44:45.568Z,1031.23
2017-12-23T00:45:45.568Z,1031.21
2017-12-23T00:46:45.564Z,1031.22
2017-12-23T00:47:45.558Z,1031.21
2017-12-23T00:48:45.555Z,1031.23
2017-12-23T00:49:45.550Z,1031.24
2017-12-23T00:50:45.546Z,1031.16
2017-12-23T00:51:45.540Z,1031.22
2017-12-23T00:52:45.536Z,1031.22
2017-12-23T00:53:45.528Z,1031.22
2017-12-23T00:54:45.524Z,1031.18
2017-12-23T00:55:45.518Z,1031.20
2017-12-23T00:56:45.513Z,1031.17
2017-12-23T00:57:45.510Z,1031.16
2017-12-23T00:58:45.505Z,1031.13
2017-12-23T00:59:45.500Z,1031.16
2017-12-23T01:00:45.495Z,1031.11
2017-12-23T01:01:45.495Z,1031.06
2017-12-23T01:02:45.491Z,1031.11
2017-12-23T01:03:45.490Z,1031.06
2017-12-23T01:04:45.482Z,1031.01
2017-12-23T01:05:45.478Z,1030.99
2017-12-23T01:06:45.473Z,1031.00
2017-12-23T01:07:45.468Z,1030.97
2017-12-23T01:08:45.464Z,1030.97
2017-12-23T01:09:45.454Z,1030.95
2017-12-23T01:10:45.451Z,1030.94
2017-12-23T01:11:45.445Z,1030.94
2017-12-23T01:12:45.441Z,1030.92
2017-12-23T01:13:45.436Z,1030.90
2017-12-23T01:14:45.431Z,1030.88
2017-12-23T01:15:45.426Z,1030.87
2017-12-23T01:16:45.423Z,1030.92
2017-12-23T01:17:45.422Z,1030.95
2017-12-23T01:18:45.417Z,1030.97
2017-12-23T01:19:45.413Z,1030.93
2017-12-23T01:20:45.408Z,1030.97
2017-12-23T01:21:45.403Z,1030.97
2017-12-23T01:22:45.398Z,1031.02
2017-12-23T01:23:45.393Z,1030.95
2017-12-23T01:24:45.389Z,1030.95
2017-12-23T01:25:45.380Z,1030.95
2017-12-23T01:26:45.376Z,1030.98
2017-12-23T01:27:45.371Z,1030.96
2017-12-23T01:28:45.373Z,1030.93
2017-12-23T01:29:45.363Z,1030.91
2017-12-23T01:30:45.359Z,1030.87
2017-12-23T01:31:45.352Z,1030.89
2017-12-23T01:32:45.348Z,1030.88
2017-12-23T01:33:45.347Z,1030.85
2017-12-23T01:34:45.343Z,1030.80
2017-12-23T01:35:45.337Z,1030.86
2017-12-23T01:36:45.334Z,1030.88
2017-12-23T01:37:45.325Z,1030.86
2017-12-23T01:38:45.320Z,1030.85
2017-12-23T01:39:45.314Z,1030.89
2017-12-23T01:40:45.310Z,1030.89
2017-12-23T01:41:45.314Z,1030.92
2017-12-23T01:42:45.305Z,1030.94
2017-12-23T01:43:45.299Z,1030.92
2017-12-23T01:44:45.294Z,1030.87
2017-12-23T01:45:45.291Z,1030.92
2017-12-23T01:46:45.285Z,1030.87
2017-12-23T01:47:45.280Z,1030.93
2017-12-23T01:48:45.275Z,1030.89
2017-12-23T01:49:45.272Z,1030.81
2017-12-23T01:50:45.261Z,1030.86
2017-12-23T01:51:45.256Z,1030.83
2017-12-23T01:52:45.251Z,1030.80
2017-12-23T01:53:45.247Z,1030.68
2017-12-23T01:54:45.242Z,1030.71
2017-12-23T01:55:45.236Z,1030.61
2017-12-23T01:56:45.231Z,1030.61
2017-12-23T01:57:45.231Z,1030.57
2017-12-23T01:58:45.227Z,1030.55
2017-12-23T01:59:45.221Z,1030.62
2017-12-23T02:00:45.216Z,1030.57
2017-12-23T02:01:45.211Z,1030.61
2017-12-23T02:02:45.207Z,1030.55
2017-12-23T02:03:45.201Z,1030.56
2017-12-23T02:04:45.196Z,1030.56
2017-12-23T02:05:45.187Z,1030.54
2017-12-23T02:06:45.184Z,1030.55
2017-12-23T02:07:45.178Z,1030.52
2017-12-23T02:08:45.173Z,1030.52
2017-12-23T02:09:45.169Z,1030.47
2017-12-23T02:10:45.163Z,1030.47
2017-12-23T02:11:45.158Z,1030.45
2017-12-23T02:12:45.153Z,1030.44
2017-12-23T02:13:45.152Z,1030.42
2017-12-23T02:14:45.148Z,1030.44
2017-12-23T02:15:45.143Z,1030.42
2017-12-23T02:16:45.139Z,1030.43
2017-12-23T02:17:45.131Z,1030.39
2017-12-23T02:18:45.127Z,1030.41
2017-12-23T02:19:45.120Z,1030.33
2017-12-23T02:20:45.116Z,1030.33
2017-12-23T02:21:45.107Z,1030.36
2017-12-23T02:22:45.127Z,1030.40
2017-12-23T02:23:45.096Z,1030.39
2017-12-23T02:24:45.093Z,1030.42
2017-12-23T02:25:45.087Z,1030.39
2017-12-23T02:26:45.082Z,1030.35
2017-12-23T02:27:45.077Z,1030.37
2017-12-23T02:28:45.075Z,1030.32
2017-12-23T02:29:45.070Z,1030.36
2017-12-23T02:30:45.067Z,1030.35
2017-12-23T02:31:45.059Z,1030.32
2017-12-23T02:32:45.055Z,1030.34
2017-12-23T02:33:45.051Z,1030.34
2017-12-23T02:34:45.046Z,1030.29
2017-12-23T02:35:45.043Z,1030.33
2017-12-23T02:36:45.035Z,1030.25
2017-12-23T02:37:45.027Z,1030.21
2017-12-23T02:38:45.020Z,1030.26
2017-12-23T02:39:45.014Z,1030.28
2017-12-23T02:40:45.010Z,1030.22
2017-12-23T02:41:45.008Z,1030.26
2017-12-23T02:42:45.004Z,1030.29
2017-12-23T02:43:44.999Z,1030.19
2017-12-23T02:44:44.992Z,1030.17
2017-12-23T02:45:44.984Z,1030.15
2017-12-23T02:46:44.980Z,1030.15
2017-12-23T02:47:44.973Z,1030.11
2017-12-23T02:48:44.968Z,1030.09
2017-12-23T02:49:44.963Z,1030.06
2017-12-23T02:50:44.960Z,1030.02
2017-12-23T02:51:44.953Z,1030.01
2017-12-23T02:52:44.948Z,1029.98
2017-12-23T02:53:44.947Z,1029.94
2017-12-23T02:54:44.942Z,1029.94
2017-12-23T02:55:44.936Z,1029.88
2017-12-23T02:56:44.932Z,1029.88
2017-12-23T02:57:44.927Z,1029.89
2017-12-23T02:58:44.922Z,1029.87
2017-12-23T02:59:44.916Z,1029.95
2017-12-23T03:00:44.912Z,1029.95
2017-12-23T03:01:44.902Z,1029.94
2017-12-23T03:02:44.897Z,1029.94
2017-12-23T03:03:44.891Z,1029.93
2017-12-23T03:04:44.886Z,1029.92
2017-12-23T03:05:44.881Z,1029.90
2017-12-23T03:06:44.876Z,1029.92
2017-12-23T03:07:44.870Z,1029.93
2017-12-23T03:08:44.866Z,1030.01
2017-12-23T03:09:44.865Z,1029.96
2017-12-23T03:10:44.861Z,1029.90
2017-12-23T03:11:44.854Z,1029.91
2017-12-23T03:12:44.849Z,1029.90
2017-12-23T03:13:44.844Z,1029.94
2017-12-23T03:14:44.839Z,1029.97
2017-12-23T03:15:44.832Z,1029.95
2017-12-23T03:16:44.827Z,1029.97
2017-12-23T03:17:44.817Z,1029.99
2017-12-23T03:18:44.812Z,1030.01
2017-12-23T03:19:44.807Z,1030.04
2017-12-23T03:20:44.804Z,1029.99
2017-12-23T03:21:44.797Z,1030.01
2017-12-23T03:22:44.791Z,1030.03
2017-12-23T03:23:44.785Z,1030.03
2017-12-23T03:24:44.780Z,1029.99
2017-12-23T03:25:44.779Z,1029.98
2017-12-23T03:26:44.774Z,1030.02
2017-12-23T03:27:44.767Z,1030.05
2017-12-23T03:28:44.762Z,1030.04
2017-12-23T03:29:44.757Z,1030.05
2017-12-23T03:30:44.755Z,1030.05
2017-12-23T03:31:44.747Z,1029.97
2017-12-23T03:32:44.741Z,1029.93
2017-12-23T03:33:44.733Z,1030.01
2017-12-23T03:34:44.727Z,1030.01
2017-12-23T03:35:44.720Z,1029.99
2017-12-23T03:36:44.715Z,1030.09
2017-12-23T03:37:44.710Z,1030.03
2017-12-23T03:38:44.707Z,1030.02
2017-12-23T03:39:44.699Z,1030.04
2017-12-23T03:40:44.694Z,1030.01
2017-12-23T03:41:44.693Z,1029.98
2017-12-23T03:42:44.688Z,1030.02
2017-12-23T03:43:44.682Z,1030.02
2017-12-23T03:44:44.677Z,1030.01
2017-12-23T03:45:44.671Z,1029.98
2017-12-23T03:46:44.667Z,1030.01
2017-12-23T03:47:44.660Z,1029.95
2017-12-23T03:48:44.655Z,1029.98
2017-12-23T03:49:44.646Z,1029.98
2017-12-23T03:50:44.640Z,1029.88
2017-12-23T03:51:44.636Z,1029.87
2017-12-23T03:52:44.628Z,1029.85
2017-12-23T03:53:44.624Z,1029.82
2017-12-23T03:54:44.618Z,1029.82
2017-12-23T03:55:44.614Z,1029.89
2017-12-23T03:56:44.607Z,1029.92
2017-12-23T03:57:44.607Z,1029.91
2017-12-23T03:58:44.600Z,1029.95
2017-12-23T03:59:44.595Z,1029.93
2017-12-23T04:00:44.592Z,1029.92
2017-12-23T04:01:44.588Z,1029.97
2017-12-23T04:02:44.579Z,1030.03
2017-12-23T04:03:44.574Z,1030.14
2017-12-23T04:04:44.568Z,1030.08
2017-12-23T04:05:44.560Z,1030.09
2017-12-23T04:06:44.553Z,1030.10
2017-12-23T04:07:44.546Z,1030.10
2017-12-23T04:08:44.541Z,1030.11
2017-12-23T04:09:44.536Z,1030.10
2017-12-23T04:10:44.586Z,1030.10
2017-12-23T04:11:44.524Z,1030.17
2017-12-23T04:12:44.525Z,1030.16
2017-12-23T04:13:44.518Z,1030.17
2017-12-23T04:14:44.514Z,1030.12
2017-12-23T04:15:44.508Z,1030.10
2017-12-23T04:16:44.502Z,1030.13
2017-12-23T04:17:44.496Z,1030.10
2017-12-23T04:18:44.491Z,1030.07
2017-12-23T04:19:44.485Z,1030.07
2017-12-23T04:20:44.483Z,1030.07
2017-12-23T04:21:44.472Z,1030.03
2017-12-23T04:22:44.465Z,1030.00
2017-12-23T04:23:44.459Z,1029.99
2017-12-23T04:24:44.453Z,1030.00
2017-12-23T04:25:44.452Z,1030.04
2017-12-23T04:26:44.443Z,1030.04
2017-12-23T04:27:44.437Z,1030.06
2017-12-23T04:28:44.440Z,1030.07
2017-12-23T04:29:44.430Z,1030.10
2017-12-23T04:30:44.425Z,1030.14
2017-12-23T04:31:44.419Z,1030.13
2017-12-23T04:32:44.413Z,1030.19
2017-12-23T04:33:44.407Z,1030.11
2017-12-23T04:34:44.402Z,1030.19
2017-12-23T04:35:44.397Z,1030.19
2017-12-23T04:36:44.390Z,1030.16
2017-12-23T04:37:44.380Z,1030.13
2017-12-23T04:38:44.376Z,1030.15
2017-12-23T04:39:44.370Z,1030.09
2017-12-23T04:40:44.365Z,1030.13
2017-12-23T04:41:44.359Z,1030.10
2017-12-23T04:42:44.359Z,1030.09
2017-12-23T04:43:44.347Z,1030.14
2017-12-23T04:44:44.344Z,1030.14
2017-12-23T04:45:44.345Z,1030.11
2017-12-23T04:46:44.336Z,1030.09
2017-12-23T04:47:44.330Z,1030.14
2017-12-23T04:48:44.328Z,1030.04
2017-12-23T04:49:44.314Z,1030.06
2017-12-23T04:50:44.308Z,1030.09
2017-12-23T04:51:44.302Z,1030.09
2017-12-23T04:52:44.299Z,1030.10
2017-12-23T04:53:44.297Z,1030.07
2017-12-23T04:54:44.292Z,1030.06
2017-12-23T04:55:44.285Z,1030.09
2017-12-23T04:56:44.280Z,1030.11
2017-12-23T04:57:44.276Z,1030.11
2017-12-23T04:58:44.271Z,1030.09
2017-12-23T04:59:44.263Z,1030.09
2017-12-23T05:00:44.259Z,1030.09
2017-12-23T05:01:44.250Z,1030.12
2017-12-23T05:02:44.243Z,1030.07
2017-12-23T05:03:44.237Z,1030.03
2017-12-23T05:04:44.232Z,1030.11
2017-12-23T05:05:44.226Z,1030.03
2017-12-23T05:06:44.221Z,1030.04
2017-12-23T05:07:44.221Z,1030.00
2017-12-23T05:08:44.209Z,1030.06
2017-12-23T05:09:44.209Z,1030.06
2017-12-23T05:10:44.203Z,1030.01
2017-12-23T05:11:44.197Z,1030.03
2017-12-23T05:12:44.192Z,1030.01
2017-12-23T05:13:44.191Z,1030.01
2017-12-23T05:14:44.180Z,1029.99
2017-12-23T05:15:44.175Z,1030.05
2017-12-23T05:16:44.170Z,1030.00
2017-12-23T05:17:44.160Z,1030.01
2017-12-23T05:18:44.158Z,1029.98
2017-12-23T05:19:44.149Z,1030.02
2017-12-23T05:20:44.142Z,1029.99
2017-12-23T05:21:44.137Z,1030.03
2017-12-23T05:22:44.132Z,1030.07
2017-12-23T05:23:44.125Z,1030.02
2017-12-23T05:24:44.120Z,1029.98
2017-12-23T05:25:44.119Z,1029.98
2017-12-23T05:26:44.114Z,1029.99
2017-12-23T05:27:44.108Z,1029.96
2017-12-23T05:28:44.102Z,1030.02
2017-12-23T05:29:44.098Z,1029.94
2017-12-23T05:30:44.091Z,1029.96
2017-12-23T05:31:44.085Z,1029.94
2017-12-23T05:32:44.079Z,1029.93
2017-12-23T05:33:44.070Z,1029.91
2017-12-23T05:34:44.065Z,1029.93
2017-12-23T05:35:44.058Z,1030.00
2017-12-23T05:36:44.053Z,1029.95
2017-12-23T05:37:44.050Z,1029.98
2017-12-23T05:38:44.043Z,1029.91
2017-12-23T05:39:44.036Z,1029.89
2017-12-23T05:40:44.031Z,1029.83
2017-12-23T05:41:44.030Z,1029.87
2017-12-23T05:42:44.026Z,1029.84
2017-12-23T05:43:44.018Z,1029.83
2017-12-23T05:44:44.013Z,1029.86
2017-12-23T05:45:44.007Z,1029.86
2017-12-23T05:46:44.003Z,1029.84
2017-12-23T05:47:43.996Z,1029.84
2017-12-23T05:48:43.991Z,1029.79
2017-12-23T05:49:43.981Z,1029.79
2017-12-23T05:50:43.975Z,1029.72
2017-12-23T05:51:43.980Z,1029.68
2017-12-23T05:52:43.964Z,1029.66
2017-12-23T05:53:43.963Z,1029.64
2017-12-23T05:54:43.958Z,1029.64
2017-12-23T05:55:43.952Z,1029.65
2017-12-23T05:56:43.948Z,1029.66
2017-12-23T05:57:43.938Z,1029.57
2017-12-23T05:58:43.931Z,1029.61
2017-12-23T05:59:43.926Z,1029.62
2017-12-23T06:00:43.920Z,1029.56
2017-12-23T06:01:43.914Z,1029.64
2017-12-23T06:02:43.912Z,1029.64
2017-12-23T06:03:43.903Z,1029.67
2017-12-23T06:04:43.900Z,1029.59
2017-12-23T06:05:43.897Z,1029.63
2017-12-23T06:06:43.891Z,1029.63
2017-12-23T06:07:43.886Z,1029.60
2017-12-23T06:08:43.880Z,1029.57
2017-12-23T06:09:43.875Z,1029.59
2017-12-23T06:10:43.870Z,1029.58
2017-12-23T06:11:43.863Z,1029.58
2017-12-23T06:12:43.858Z,1029.59
2017-12-23T06:13:43.849Z,1029.59
2017-12-23T06:14:43.843Z,1029.56
2017-12-23T06:15:43.837Z,1029.55
2017-12-23T06:16:43.832Z,1029.59
2017-12-23T06:17:43.826Z,1029.61
2017-12-23T06:18:43.821Z,1029.59
2017-12-23T06:19:43.815Z,1029.60
2017-12-23T06:20:43.809Z,1029.62
2017-12-23T06:21:43.811Z,1029.64
2017-12-23T06:22:43.803Z,1029.57
2017-12-23T06:23:43.796Z,1029.59
2017-12-23T06:24:43.790Z,1029.61
2017-12-23T06:25:43.786Z,1029.59
2017-12-23T06:26:43.782Z,1029.62
2017-12-23T06:27:43.776Z,1029.61
2017-12-23T06:28:43.771Z,1029.57
2017-12-23T06:29:43.762Z,1029.60
2017-12-23T06:30:43.756Z,1029.56
2017-12-23T06:31:43.748Z,1029.56
2017-12-23T06:32:43.744Z,1029.53
2017-12-23T06:33:43.739Z,1029.55
2017-12-23T06:34:43.734Z,1029.53
2017-12-23T06:35:43.728Z,1029.51
2017-12-23T06:36:43.722Z,1029.48
2017-12-23T06:37:43.721Z,1029.47
2017-12-23T06:38:43.716Z,1029.42
2017-12-23T06:39:43.711Z,1029.38
2017-12-23T06:40:43.705Z,1029.39
2017-12-23T06:41:43.699Z,1029.35
2017-12-23T06:42:43.694Z,1029.33
2017-12-23T06:43:43.689Z,1029.36
2017-12-23T06:44:43.683Z,1029.32
2017-12-23T06:45:43.674Z,1029.30
2017-12-23T06:46:43.669Z,1029.25
2017-12-23T06:47:43.662Z,1029.20
2017-12-23T06:48:43.657Z,1029.21
2017-12-23T06:49:43.652Z,1029.20
2017-12-23T06:50:43.646Z,1029.21
2017-12-23T06:51:43.640Z,1029.18
2017-12-23T06:52:43.635Z,1029.18
2017-12-23T06:53:43.634Z,1029.11
2017-12-23T06:54:43.630Z,1029.09
2017-12-23T06:55:43.623Z,1029.05
2017-12-23T06:56:43.619Z,1029.05
2017-12-23T06:57:43.608Z,1029.07
2017-12-23T06:58:43.609Z,1029.04
2017-12-23T06:59:43.597Z,1029.06
2017-12-23T07:00:43.592Z,1029.00
2017-12-23T07:01:43.591Z,1029.01
2017-12-23T07:02:43.585Z,1029.01
2017-12-23T07:03:43.581Z,1028.97
2017-12-23T07:04:43.575Z,1029.05
2017-12-23T07:05:43.569Z,1029.05
2017-12-23T07:06:43.564Z,1029.07
2017-12-23T07:07:43.558Z,1029.09
2017-12-23T07:08:43.551Z,1029.08
2017-12-23T07:09:43.543Z,1029.10
2017-12-23T07:10:43.538Z,1029.13
2017-12-23T07:11:43.530Z,1029.17
2017-12-23T07:12:43.526Z,1029.14
2017-12-23T07:13:43.547Z,1029.20
2017-12-23T07:14:43.515Z,1029.21
2017-12-23T07:15:43.508Z,1029.18
2017-12-23T07:16:43.503Z,1029.22
2017-12-23T07:17:43.503Z,1029.20
2017-12-23T07:18:43.496Z,1029.16
2017-12-23T07:19:43.490Z,1029.19
2017-12-23T07:20:43.485Z,1029.23
2017-12-23T07:21:43.481Z,1029.21
2017-12-23T07:22:43.473Z,1029.19
2017-12-23T07:23:43.467Z,1029.22
2017-12-23T07:24:43.462Z,1029.25
2017-12-23T07:25:43.452Z,1029.24
2017-12-23T07:26:43.447Z,1029.22
2017-12-23T07:27:43.440Z,1029.27
2017-12-23T07:28:43.435Z,1029.28
2017-12-23T07:29:43.431Z,1029.34
2017-12-23T07:30:43.425Z,1029.37
2017-12-23T07:31:43.418Z,1029.33
2017-12-23T07:32:43.413Z,1029.35
2017-12-23T07:33:43.412Z,1029.38
2017-12-23T07:34:43.408Z,1029.36
2017-12-23T07:35:43.400Z,1029.32
2017-12-23T07:36:43.395Z,1029.37
2017-12-23T07:37:43.390Z,1029.38
2017-12-23T07:38:43.388Z,1029.46
2017-12-23T07:39:43.379Z,1029.46
2017-12-23T07:40:43.373Z,1029.40
2017-12-23T07:41:43.363Z,1029.40
2017-12-23T07:42:43.358Z,1029.36
2017-12-23T07:43:43.351Z,1029.40
2017-12-23T07:44:43.346Z,1029.38
2017-12-23T07:45:43.342Z,1029.42
2017-12-23T07:46:43.337Z,1029.38
2017-12-23T07:47:43.331Z,1029.41
2017-12-23T07:48:43.327Z,1029.41
2017-12-23T07:49:43.324Z,1029.38
2017-12-23T07:50:43.319Z,1029.36
2017-12-23T07:51:43.312Z,1029.33
2017-12-23T07:52:43.307Z,1029.36
2017-12-23T07:53:43.301Z,1029.35
2017-12-23T07:54:43.300Z,1029.37
2017-12-23T07:55:43.290Z,1029.38
2017-12-23T07:56:43.285Z,1029.38
2017-12-23T07:57:43.275Z,1029.39
2017-12-23T07:58:43.271Z,1029.40
2017-12-23T07:59:43.265Z,1029.43
2017-12-23T08:00:43.258Z,1029.36
2017-12-23T08:01:43.254Z,1029.40
2017-12-23T08:02:43.248Z,1029.46
2017-12-23T08:03:43.241Z,1029.44
2017-12-23T08:04:43.236Z,1029.42
2017-12-23T08:05:43.235Z,1029.42
2017-12-23T08:06:43.229Z,1029.44
2017-12-23T08:07:43.223Z,1029.43
2017-12-23T08:08:43.217Z,1029.44
2017-12-23T08:09:43.225Z,1029.46
2017-12-23T08:10:43.206Z,1029.49
2017-12-23T08:11:43.201Z,1029.45
2017-12-23T08:12:43.197Z,1029.38
2017-12-23T08:13:43.187Z,1029.44
2017-12-23T08:14:43.180Z,1029.40
2017-12-23T08:15:43.175Z,1029.41
2017-12-23T08:16:43.168Z,1029.44
2017-12-23T08:17:43.163Z,1029.40
2017-12-23T08:18:43.158Z,1029.47
2017-12-23T08:19:43.152Z,1029.45
2017-12-23T08:20:43.151Z,1029.45
2017-12-23T08:21:43.147Z,1029.50
2017-12-23T08:22:43.140Z,1029.49
2017-12-23T08:23:43.134Z,1029.53
2017-12-23T08:24:43.130Z,1029.48
2017-12-23T08:25:43.123Z,1029.54
2017-12-23T08:26:43.118Z,1029.53
2017-12-23T08:27:43.112Z,1029.52
2017-12-23T08:28:43.108Z,1029.54
2017-12-23T08:29:43.098Z,1029.59
2017-12-23T08:30:43.098Z,1029.56
2017-12-23T08:31:43.086Z,1029.61
2017-12-23T08:32:43.081Z,1029.61
2017-12-23T08:33:43.075Z,1029.61
2017-12-23T08:34:43.072Z,1029.57
2017-12-23T08:35:43.064Z,1029.60
2017-12-23T08:36:43.061Z,1029.60
2017-12-23T08:37:43.059Z,1029.56
2017-12-23T08:38:43.053Z,1029.58
2017-12-23T08:39:43.047Z,1029.61
2017-12-23T08:40:43.043Z,1029.59
2017-12-23T08:41:43.036Z,1029.59
2017-12-23T08:42:43.031Z,1029.55
2017-12-23T08:43:43.024Z,1029.60
2017-12-23T08:44:43.022Z,1029.53
2017-12-23T08:45:43.011Z,1029.55
2017-12-23T08:46:43.006Z,1029.52
2017-12-23T08:47:43.001Z,1029.51
2017-12-23T08:48:42.998Z,1029.50
2017-12-23T08:49:42.989Z,1029.48
2017-12-23T08:50:42.986Z,1029.52
2017-12-23T08:51:42.979Z,1029.53
2017-12-23T08:52:42.973Z,1029.51
2017-12-23T08:53:42.972Z,1029.51
2017-12-23T08:54:42.967Z,1029.56
2017-12-23T08:55:42.962Z,1029.54
2017-12-23T08:56:42.955Z,1029.54
2017-12-23T08:57:42.951Z,1029.54
2017-12-23T08:58:42.945Z,1029.49
2017-12-23T08:59:42.941Z,1029.56
2017-12-23T09:00:42.935Z,1029.47
2017-12-23T09:01:42.925Z,1029.49
2017-12-23T09:02:42.920Z,1029.50
2017-12-23T09:03:42.952Z,1029.51
2017-12-23T09:04:42.913Z,1029.50
2017-12-23T09:05:42.908Z,1029.45
2017-12-23T09:06:42.903Z,1029.50
2017-12-23T09:07:42.898Z,1029.50
2017-12-23T09:08:42.894Z,1029.49
2017-12-23T09:09:42.883Z,1029.44
2017-12-23T09:10:42.878Z,1029.46
2017-12-23T09:11:42.872Z,1029.48
2017-12-23T09:12:42.867Z,1029.52
2017-12-23T09:13:42.863Z,1029.48
2017-12-23T09:14:42.858Z,1029.51
2017-12-23T09:15:42.852Z,1029.49
2017-12-23T09:16:42.847Z,1029.45
2017-12-23T09:17:42.847Z,1029.52
2017-12-23T09:18:42.841Z,1029.53
2017-12-23T09:19:42.836Z,1029.50
2017-12-23T09:20:42.829Z,1029.54
2017-12-23T09:21:42.825Z,1029.49
2017-12-23T09:22:42.821Z,1029.55
2017-12-23T09:23:42.813Z,1029.52
2017-12-23T09:24:42.808Z,1029.65
2017-12-23T09:25:42.799Z,1029.61
2017-12-23T09:26:42.794Z,1029.61
2017-12-23T09:27:42.788Z,1029.60
2017-12-23T09:28:42.784Z,1029.59
2017-12-23T09:29:42.778Z,1029.61
2017-12-23T09:30:42.773Z,1029.61
2017-12-23T09:31:42.766Z,1029.57
2017-12-23T09:32:42.763Z,1029.61
2017-12-23T09:33:42.762Z,1029.63
2017-12-23T09:34:42.757Z,1029.57
2017-12-23T09:35:42.751Z,1029.61
2017-12-23T09:36:42.745Z,1029.56
2017-12-23T09:37:42.740Z,1029.57
2017-12-23T09:38:42.736Z,1029.62
2017-12-23T09:39:42.729Z,1029.57
2017-12-23T09:40:42.724Z,1029.61
2017-12-23T09:41:42.715Z,1029.56
2017-12-23T09:42:42.711Z,1029.58
2017-12-23T09:43:42.704Z,1029.58
2017-12-23T09:44:42.699Z,1029.59
2017-12-23T09:45:42.694Z,1029.63
2017-12-23T09:46:42.691Z,1029.52
2017-12-23T09:47:42.684Z,1029.57
2017-12-23T09:48:42.686Z,1029.51
2017-12-23T09:49:42.679Z,1029.54
2017-12-23T09:50:42.674Z,1029.48
2017-12-23T09:51:42.667Z,1029.47
2017-12-23T09:52:42.662Z,1029.55
2017-12-23T09:53:42.658Z,1029.51
2017-12-23T09:54:42.653Z,1029.48
2017-12-23T09:55:42.647Z,1029.47
2017-12-23T09:56:42.642Z,1029.47
2017-12-23T09:57:42.635Z,1029.45
2017-12-23T09:58:42.628Z,1029.45
2017-12-23T09:59:42.622Z,1029.42
2017-12-23T10:00:42.617Z,1029.44
2017-12-23T10:01:42.622Z,1029.45
2017-12-23T10:02:42.610Z,1029.48
2017-12-23T10:03:42.602Z,1029.44
2017-12-23T10:04:42.596Z,1029.42
2017-12-23T10:05:42.597Z,1029.44
2017-12-23T10:06:42.591Z,1029.38
2017-12-23T10:07:42.586Z,1029.37
2017-12-23T10:08:42.580Z,1029.30
2017-12-23T10:09:42.571Z,1029.37
2017-12-23T10:10:42.566Z,1029.36
2017-12-23T10:11:42.561Z,1029.37
2017-12-23T10:12:42.556Z,1029.30
2017-12-23T10:13:42.554Z,1029.31
2017-12-23T10:14:42.549Z,1029.31
2017-12-23T10:15:42.543Z,1029.29
2017-12-23T10:16:42.539Z,1029.30
2017-12-23T10:17:42.533Z,1029.25
2017-12-23T10:18:42.531Z,1029.29
2017-12-23T10:19:42.523Z,1029.23
2017-12-23T10:20:42.518Z,1029.23
2017-12-23T10:21:42.509Z,1029.15
2017-12-23T10:22:42.503Z,1029.20
2017-12-23T10:23:42.499Z,1029.23
2017-12-23T10:24:42.494Z,1029.18
2017-12-23T10:25:42.488Z,1029.22
2017-12-23T10:26:42.483Z,1029.26
2017-12-23T10:27:42.478Z,1029.29
2017-12-23T10:28:42.472Z,1029.26
2017-12-23T10:29:42.472Z,1029.27
2017-12-23T10:30:42.468Z,1029.24
2017-12-23T10:31:42.463Z,1029.19
2017-12-23T10:32:42.456Z,1029.20
2017-12-23T10:33:42.451Z,1029.20
2017-12-23T10:34:42.447Z,1029.20
2017-12-23T10:35:42.441Z,1029.19
2017-12-23T10:36:42.437Z,1029.18
2017-12-23T10:37:42.428Z,1029.13
2017-12-23T10:38:42.422Z,1029.11
2017-12-23T10:39:42.417Z,1029.07
2017-12-23T10:40:42.412Z,1029.07
2017-12-23T10:41:42.407Z,1029.08
2017-12-23T10:42:42.402Z,1029.04
2017-12-23T10:43:42.396Z,1029.02
2017-12-23T10:44:42.392Z,1029.07
2017-12-23T10:45:42.391Z,1029.02
2017-12-23T10:46:42.386Z,1029.04
2017-12-23T10:47:42.381Z,1028.99
2017-12-23T10:48:42.377Z,1028.98
2017-12-23T10:49:42.373Z,1028.94
2017-12-23T10:50:42.366Z,1028.97
2017-12-23T10:51:42.362Z,1029.05
2017-12-23T10:52:42.357Z,1028.95
2017-12-23T10:53:42.347Z,1028.96
2017-12-23T10:54:42.342Z,1028.97
2017-12-23T10:55:42.336Z,1029.01
2017-12-23T10:56:42.332Z,1028.97
2017-12-23T10:57:42.328Z,1028.94
2017-12-23T10:58:42.323Z,1028.89
2017-12-23T10:59:42.320Z,1028.91
2017-12-23T11:00:42.312Z,1028.89
2017-12-23T11:01:42.313Z,1028.89
2017-12-23T11:02:42.308Z,1028.93
2017-12-23T11:03:42.301Z,1028.92
2017-12-23T11:04:42.297Z,1028.89
2017-12-23T11:05:42.293Z,1028.85
2017-12-23T11:06:42.287Z,1028.89
2017-12-23T11:07:42.281Z,1028.86
2017-12-23T11:08:42.278Z,1028.84
2017-12-23T11:09:42.274Z,1028.85
2017-12-23T11:10:42.263Z,1028.87
2017-12-23T11:11:42.258Z,1028.83
2017-12-23T11:12:42.257Z,1028.84
2017-12-23T11:13:42.254Z,1028.80
2017-12-23T11:14:42.248Z,1028.83
2017-12-23T11:15:42.243Z,1028.79
2017-12-23T11:16:42.244Z,1028.84
2017-12-23T11:17:42.229Z,1028.83
2017-12-23T11:18:42.225Z,1028.84
2017-12-23T11:19:42.220Z,1028.83
2017-12-23T11:20:42.214Z,1028.86
2017-12-23T11:21:42.214Z,1028.80
2017-12-23T11:22:42.205Z,1028.78
2017-12-23T11:23:42.199Z,1028.76
2017-12-23T11:24:42.208Z,1028.75
2017-12-23T11:25:42.197Z,1028.77
2017-12-23T11:26:42.189Z,1028.74
2017-12-23T11:27:42.185Z,1028.72
2017-12-23T11:28:42.179Z,1028.71
2017-12-23T11:29:42.175Z,1028.68
2017-12-23T11:30:42.170Z,1028.64
2017-12-23T11:31:42.164Z,1028.65
2017-12-23T11:32:42.159Z,1028.59
2017-12-23T11:33:42.154Z,1028.55
2017-12-23T11:34:42.146Z,1028.57
2017-12-23T11:35:42.140Z,1028.55
2017-12-23T11:36:42.136Z,1028.62
2017-12-23T11:37:42.135Z,1028.57
2017-12-23T11:38:42.163Z,1028.62
2017-12-23T11:39:42.122Z,1028.57
2017-12-23T11:40:42.117Z,1028.60
2017-12-23T11:41:42.116Z,1028.51
2017-12-23T11:42:42.111Z,1028.51
2017-12-23T11:43:42.104Z,1028.49
2017-12-23T11:44:42.100Z,1028.48
2017-12-23T11:45:42.101Z,1028.47
2017-12-23T11:46:42.091Z,1028.48
2017-12-23T11:47:42.086Z,1028.46
2017-12-23T11:48:42.081Z,1028.45
2017-12-23T11:49:42.072Z,1028.46
2017-12-23T11:50:42.068Z,1028.41
2017-12-23T11:51:42.061Z,1028.47
2017-12-23T11:52:42.057Z,1028.35
2017-12-23T11:53:42.052Z,1028.36
2017-12-23T11:54:42.047Z,1028.43
2017-12-23T11:55:42.042Z,1028.41
2017-12-23T11:56:42.037Z,1028.42
2017-12-23T11:57:42.037Z,1028.42
2017-12-23T11:58:42.031Z,1028.40
2017-12-23T11:59:42.027Z,1028.48
2017-12-23T12:00:42.021Z,1028.42
2017-12-23T12:01:42.018Z,1028.45
2017-12-23T12:02:42.011Z,1028.40
2017-12-23T12:03:42.005Z,1028.38
2017-12-23T12:04:42.002Z,1028.37
2017-12-23T12:05:41.991Z,1028.35